createdAt,value
2023-03-21T00:01:53.347Z,5.66
2023-03-21T00:04:23.727Z,5.73
2023-03-21T00:06:52.605Z,5.81
2023-03-21T00:09:21.266Z,5.91
2023-03-21T00:11:49.767Z,5.93
2023-03-21T00:14:20.258Z,5.95
2023-03-21T00:16:51.285Z,6.00
2023-03-21T00:19:21.017Z,6.00
2023-03-21T00:22:06.631Z,6.06
2023-03-21T00:24:36.679Z,6.06
2023-03-21T00:27:34.279Z,6.12
2023-03-21T00:29:54.144Z,6.16
2023-03-21T00:32:23.154Z,6.16
2023-03-21T00:35:11.927Z,6.20
2023-03-21T00:37:42.029Z,6.22
2023-03-21T00:40:25.337Z,6.25
2023-03-21T00:42:56.100Z,6.21
2023-03-21T00:45:24.448Z,6.24
2023-03-21T00:47:52.936Z,6.25
2023-03-21T00:50:22.454Z,6.27
2023-03-21T00:52:52.231Z,6.26
2023-03-21T00:55:21.319Z,6.32
2023-03-21T00:57:56.153Z,6.31
2023-03-21T01:00:28.117Z,6.25
2023-03-21T01:03:17.650Z,6.27
2023-03-21T01:06:06.929Z,6.24
2023-03-21T01:08:51.289Z,6.29
2023-03-21T01:11:24.147Z,6.31
2023-03-21T01:14:07.229Z,6.33
2023-03-21T01:16:40.254Z,6.25
2023-03-21T01:19:22.194Z,6.33
2023-03-21T01:21:53.110Z,6.38
2023-03-21T01:24:23.033Z,6.42
2023-03-21T01:26:51.579Z,6.46
2023-03-21T01:29:19.829Z,6.46
2023-03-21T01:31:48.333Z,6.39
2023-03-21T01:34:16.700Z,6.36
2023-03-21T01:36:45.318Z,6.37
2023-03-21T01:39:13.712Z,6.43
2023-03-21T01:41:44.793Z,6.40
2023-03-21T01:44:17.832Z,6.42
2023-03-21T01:47:03.637Z,6.44
2023-03-21T01:49:41.726Z,6.48
2023-03-21T01:52:21.110Z,6.48
2023-03-21T01:54:57.462Z,6.48
2023-03-21T01:57:42.425Z,6.46
2023-03-21T02:00:15.605Z,6.49
2023-03-21T02:02:52.673Z,6.59
2023-03-21T02:05:29.008Z,6.66
2023-03-21T02:07:57.530Z,6.67
2023-03-21T02:10:26.196Z,6.71
2023-03-21T02:12:58.260Z,6.71
2023-03-21T02:15:28.316Z,6.72
2023-03-21T02:18:04.106Z,6.73
2023-03-21T02:20:51.237Z,6.67
2023-03-21T02:24:08.700Z,6.62
2023-03-21T02:27:03.555Z,6.57
2023-03-21T02:30:01.468Z,6.56
2023-03-21T02:32:38.775Z,6.61
2023-03-21T02:35:31.734Z,6.69
2023-03-21T02:38:09.324Z,6.71
2023-03-21T02:40:43.656Z,6.72
2023-03-21T02:43:23.484Z,6.78
2023-03-21T02:45:56.125Z,6.79
2023-03-21T02:48:35.519Z,6.75
2023-03-21T02:51:17.288Z,6.83
2023-03-21T02:54:04.609Z,6.79
2023-03-21T02:56:40.505Z,6.79
2023-03-21T02:59:09.540Z,6.84
2023-03-21T03:01:38.264Z,6.83
2023-03-21T03:04:18.659Z,6.82
2023-03-21T03:07:04.700Z,6.81
2023-03-21T03:09:48.362Z,6.82
2023-03-21T03:12:26.196Z,6.80
2023-03-21T03:15:04.434Z,6.84
2023-03-21T03:17:51.459Z,6.85
2023-03-21T03:20:27.289Z,6.74
2023-03-21T03:23:08.080Z,6.74
2023-03-21T03:25:44.700Z,6.77
2023-03-21T03:28:16.472Z,6.72
2023-03-21T03:31:00.875Z,6.77
2023-03-21T03:33:36.333Z,6.79
2023-03-21T03:36:07.051Z,6.84
2023-03-21T03:38:38.300Z,6.88
2023-03-21T03:41:12.105Z,6.89
2023-03-21T03:43:48.884Z,6.86
2023-03-21T03:46:20.312Z,6.85
2023-03-21T03:48:53.501Z,6.86
2023-03-21T03:51:25.816Z,6.89
2023-03-21T03:53:58.698Z,6.81
2023-03-21T03:56:29.052Z,6.84
2023-03-21T03:58:58.580Z,6.84
2023-03-21T04:01:27.029Z,6.83
2023-03-21T04:04:10.428Z,6.79
2023-03-21T04:06:41.548Z,6.82
2023-03-21T04:09:20.632Z,6.82
2023-03-21T04:11:51.760Z,6.81
2023-03-21T04:14:20.041Z,6.85
2023-03-21T04:16:49.285Z,6.81
2023-03-21T04:19:18.426Z,6.87
2023-03-21T04:21:47.763Z,6.86
2023-03-21T04:24:17.365Z,6.87
2023-03-21T04:26:45.857Z,6.78
2023-03-21T04:29:15.577Z,6.65
2023-03-21T04:31:43.983Z,6.59
2023-03-21T04:34:12.693Z,6.77
2023-03-21T04:36:44.260Z,6.85
2023-03-21T04:39:17.302Z,6.79
2023-03-21T04:41:47.388Z,6.82
2023-03-21T04:44:18.252Z,6.86
2023-03-21T04:46:46.637Z,6.80
2023-03-21T04:49:14.974Z,6.80
2023-03-21T04:51:44.203Z,6.84
2023-03-21T04:56:42.975Z,6.91
2023-03-21T04:59:14.193Z,6.95
2023-03-21T05:01:44.982Z,6.99
2023-03-21T05:04:15.801Z,6.96
2023-03-21T05:06:45.060Z,6.94
2023-03-21T05:09:14.220Z,6.94
2023-03-21T05:11:42.922Z,6.99
2023-03-21T05:14:13.430Z,7.03
2023-03-21T05:16:45.257Z,6.98
2023-03-21T05:19:14.059Z,7.07
2023-03-21T05:21:42.788Z,7.11
2023-03-21T05:24:14.537Z,6.97
2023-03-21T05:26:44.248Z,6.84
2023-03-21T05:29:13.420Z,6.91
2023-03-21T05:31:43.186Z,6.88
2023-03-21T05:34:11.488Z,7.04
2023-03-21T05:36:39.736Z,7.08
2023-03-21T05:39:08.479Z,7.16
2023-03-21T05:41:36.806Z,7.08
2023-03-21T05:44:05.164Z,7.16
2023-03-21T05:46:33.722Z,7.15
2023-03-21T05:49:03.474Z,7.15
2023-03-21T05:51:31.719Z,7.16
2023-03-21T05:54:00.024Z,7.26
2023-03-21T05:56:28.463Z,7.17
2023-03-21T05:58:56.672Z,7.21
2023-03-21T06:01:24.970Z,7.25
2023-03-21T06:03:53.375Z,7.22
2023-03-21T06:06:23.361Z,7.24
2023-03-21T06:08:51.591Z,7.34
2023-03-21T06:11:25.962Z,7.50
2023-03-21T06:13:54.214Z,7.37
2023-03-21T06:16:22.544Z,7.26
2023-03-21T06:18:50.947Z,7.35
2023-03-21T06:21:19.341Z,7.32
2023-03-21T06:23:51.672Z,7.33
2023-03-21T06:26:23.128Z,7.37
2023-03-21T06:28:51.498Z,7.38
2023-03-21T06:31:22.517Z,7.49
2023-03-21T06:33:51.766Z,7.50
2023-03-21T06:36:20.763Z,7.69
2023-03-21T06:38:50.724Z,7.73
2023-03-21T06:41:19.177Z,7.59
2023-03-21T06:43:48.573Z,7.55
2023-03-21T06:46:17.104Z,7.52
2023-03-21T06:48:45.755Z,7.53
2023-03-21T06:51:15.107Z,7.35
2023-03-21T06:53:44.685Z,7.22
2023-03-21T06:56:16.144Z,7.27
2023-03-21T06:58:44.429Z,7.37
2023-03-21T07:01:12.722Z,7.43
2023-03-21T07:03:41.068Z,7.33
2023-03-21T07:06:12.001Z,7.41
2023-03-21T07:08:41.184Z,7.63
2023-03-21T07:11:10.761Z,7.75
2023-03-21T07:13:40.599Z,7.59
2023-03-21T07:16:10.329Z,7.60
2023-03-21T07:18:38.952Z,7.59
2023-03-21T07:21:07.742Z,7.51
2023-03-21T07:23:36.201Z,7.53
2023-03-21T07:26:04.545Z,7.72
2023-03-21T07:28:33.641Z,7.75
2023-03-21T07:31:05.498Z,7.76
2023-03-21T07:33:34.690Z,7.70
2023-03-21T07:36:04.541Z,7.75
2023-03-21T07:38:32.821Z,7.74
2023-03-21T07:41:01.718Z,7.50
2023-03-21T07:43:30.286Z,7.39
2023-03-21T07:45:59.501Z,7.47
2023-03-21T07:48:29.646Z,7.56
2023-03-21T07:50:58.140Z,7.60
2023-03-21T07:53:26.539Z,7.85
2023-03-21T07:55:56.967Z,7.98
2023-03-21T07:58:25.720Z,7.65
2023-03-21T08:00:55.780Z,7.49
2023-03-21T08:03:26.487Z,7.43
2023-03-21T08:05:57.006Z,7.42
2023-03-21T08:08:25.353Z,7.57
2023-03-21T08:10:53.693Z,7.56
2023-03-21T08:13:23.090Z,7.43
2023-03-21T08:15:51.469Z,7.54
2023-03-21T08:18:19.811Z,7.60
2023-03-21T08:20:52.264Z,7.72
2023-03-21T08:23:22.969Z,7.76
2023-03-21T08:25:53.302Z,7.87
2023-03-21T08:28:22.478Z,7.95
2023-03-21T08:30:51.699Z,7.94
2023-03-21T08:33:20.698Z,8.06
2023-03-21T08:35:49.477Z,8.11
2023-03-21T08:38:18.200Z,8.20
2023-03-21T08:40:47.957Z,8.09
2023-03-21T08:43:16.418Z,8.06
2023-03-21T08:45:44.681Z,8.19
2023-03-21T08:48:13.042Z,8.25
2023-03-21T08:50:41.489Z,8.24
2023-03-21T08:53:09.720Z,8.11
2023-03-21T08:55:38.570Z,7.98
2023-03-21T08:58:08.475Z,7.90
2023-03-21T09:00:36.941Z,8.06
2023-03-21T09:03:05.485Z,7.74
2023-03-21T09:05:33.860Z,7.74
2023-03-21T09:08:03.560Z,7.83
2023-03-21T09:10:31.838Z,8.00
2023-03-21T09:13:00.176Z,7.89
2023-03-21T09:15:29.958Z,8.04
2023-03-21T09:18:13.148Z,7.91
2023-03-21T09:20:43.120Z,7.75
2023-03-21T09:23:12.383Z,7.69
2023-03-21T09:25:40.964Z,7.70
2023-03-21T09:28:09.816Z,7.70
2023-03-21T09:30:39.505Z,7.68
2023-03-21T09:33:13.175Z,7.88
2023-03-21T09:35:42.864Z,8.00
2023-03-21T09:38:11.286Z,7.88
2023-03-21T09:40:58.331Z,7.95
2023-03-21T09:43:38.593Z,7.78
2023-03-21T09:46:13.245Z,7.79
2023-03-21T09:48:57.113Z,7.89
2023-03-21T09:51:30.321Z,8.04
2023-03-21T09:54:03.917Z,8.16
2023-03-21T09:56:32.391Z,8.36
2023-03-21T09:59:03.306Z,8.07
2023-03-21T10:01:34.670Z,8.16
2023-03-21T10:04:06.446Z,8.29
2023-03-21T10:06:39.263Z,8.38
2023-03-21T10:09:09.801Z,8.32
2023-03-21T10:11:45.026Z,8.16
2023-03-21T10:14:22.138Z,8.17
2023-03-21T10:16:55.844Z,8.17
2023-03-21T10:19:24.562Z,8.24
2023-03-21T10:22:02.740Z,8.18
2023-03-21T10:24:34.552Z,8.10
2023-03-21T10:27:05.677Z,8.24
2023-03-21T10:29:40.031Z,8.19
2023-03-21T10:32:13.068Z,8.06
2023-03-21T10:34:45.067Z,8.17
2023-03-21T10:37:15.314Z,8.19
2023-03-21T10:39:45.100Z,8.39
2023-03-21T10:42:22.362Z,8.44
2023-03-21T10:44:53.467Z,8.72
2023-03-21T10:47:26.170Z,8.71
2023-03-21T10:50:11.312Z,8.74
2023-03-21T10:52:46.555Z,8.83
2023-03-21T10:55:24.594Z,8.63
2023-03-21T10:57:59.117Z,8.45
2023-03-21T11:00:31.507Z,8.72
2023-03-21T11:03:03.410Z,8.85
2023-03-21T11:05:37.650Z,8.82
2023-03-21T11:08:11.884Z,8.99
2023-03-21T11:10:52.551Z,8.90
2023-03-21T11:13:26.504Z,8.68
2023-03-21T11:15:56.855Z,8.75
2023-03-21T11:18:29.040Z,8.64
2023-03-21T11:20:59.841Z,8.68
2023-03-21T11:23:31.803Z,8.57
2023-03-21T11:26:01.961Z,8.62
2023-03-21T11:28:38.690Z,8.50
2023-03-21T11:31:09.342Z,8.73
2023-03-21T11:33:41.714Z,8.91
2023-03-21T11:36:33.796Z,8.71
2023-03-21T11:39:15.560Z,8.89
2023-03-21T11:41:44.590Z,8.45
2023-03-21T11:44:28.954Z,8.83
2023-03-21T11:46:57.511Z,8.75
2023-03-21T11:49:27.999Z,8.65
2023-03-21T11:52:12.538Z,8.65
2023-03-21T11:55:05.879Z,8.81
2023-03-21T11:57:40.769Z,8.46
2023-03-21T12:00:18.349Z,8.72
2023-03-21T12:03:21.964Z,8.79
2023-03-21T12:05:55.583Z,8.60
2023-03-21T12:08:38.796Z,8.68
2023-03-21T12:11:16.777Z,8.85
2023-03-21T12:13:55.956Z,8.49
2023-03-21T12:16:35.026Z,8.30
2023-03-21T12:19:34.459Z,8.19
2023-03-21T12:22:12.139Z,8.25
2023-03-21T12:24:45.607Z,8.44
2023-03-21T12:27:25.437Z,8.28
2023-03-21T12:30:11.420Z,8.17
2023-03-21T12:32:54.658Z,8.17
2023-03-21T12:35:38.070Z,8.40
2023-03-21T12:38:17.214Z,8.56
2023-03-21T12:41:02.948Z,8.38
2023-03-21T12:43:41.412Z,8.26
2023-03-21T12:46:18.478Z,8.49
2023-03-21T12:48:50.816Z,8.53
2023-03-21T12:51:24.271Z,8.56
2023-03-21T12:54:07.406Z,8.27
2023-03-21T12:56:41.129Z,8.23
2023-03-21T12:59:22.006Z,7.93
2023-03-21T13:01:55.790Z,7.81
2023-03-21T13:04:51.540Z,7.82
2023-03-21T13:07:25.313Z,7.71
2023-03-21T13:09:57.057Z,7.58
2023-03-21T13:12:43.251Z,7.73
2023-03-21T13:15:52.485Z,7.65
2023-03-21T13:18:30.069Z,7.44
2023-03-21T13:21:00.179Z,7.59
2023-03-21T13:23:36.309Z,7.49
2023-03-21T13:26:11.329Z,7.49
2023-03-21T13:28:41.865Z,7.36
2023-03-21T13:31:21.456Z,7.32
2023-03-21T13:33:51.530Z,7.22
2023-03-21T13:36:26.719Z,7.17
2023-03-21T13:39:00.769Z,7.09
2023-03-21T13:41:34.718Z,7.26
2023-03-21T13:44:20.152Z,7.20
2023-03-21T13:46:56.388Z,7.18
2023-03-21T13:49:31.265Z,7.14
2023-03-21T13:52:02.412Z,7.06
2023-03-21T13:54:48.771Z,7.13
2023-03-21T13:57:39.551Z,7.26
2023-03-21T14:00:25.799Z,7.29
2023-03-21T14:03:03.750Z,7.18
2023-03-21T14:05:33.653Z,7.23
2023-03-21T14:08:15.370Z,7.35
2023-03-21T14:10:49.174Z,7.25
2023-03-21T14:13:22.040Z,7.16
2023-03-21T14:15:56.315Z,7.22
2023-03-21T14:18:41.077Z,7.19
2023-03-21T14:21:23.694Z,6.99
2023-03-21T14:23:58.737Z,7.13
2023-03-21T14:26:28.976Z,7.07
2023-03-21T14:28:59.899Z,7.08
2023-03-21T14:31:28.469Z,6.95
2023-03-21T14:33:59.735Z,6.95
2023-03-21T14:36:30.936Z,7.07
2023-03-21T14:39:05.736Z,7.08
2023-03-21T14:41:35.266Z,7.08
2023-03-21T14:44:16.012Z,6.92
2023-03-21T14:46:45.234Z,6.94
2023-03-21T14:49:23.157Z,6.91
2023-03-21T14:51:53.236Z,6.85
2023-03-21T14:54:22.001Z,6.73
2023-03-21T14:56:53.461Z,6.71
2023-03-21T14:59:27.860Z,6.69
2023-03-21T15:01:56.376Z,6.75
2023-03-21T15:04:24.714Z,6.76
2023-03-21T15:06:59.382Z,6.66
2023-03-21T15:09:31.919Z,6.68
2023-03-21T15:12:02.990Z,6.63
2023-03-21T15:14:36.631Z,6.62
2023-03-21T15:17:07.687Z,6.63
2023-03-21T15:19:39.154Z,6.61
2023-03-21T15:22:17.886Z,6.54
2023-03-21T15:24:51.078Z,6.43
2023-03-21T15:27:21.548Z,6.44
2023-03-21T15:29:54.230Z,6.51
2023-03-21T15:32:26.469Z,6.49
2023-03-21T15:34:56.683Z,6.51
2023-03-21T15:37:27.605Z,6.52
2023-03-21T15:40:11.461Z,6.53
2023-03-21T15:42:41.942Z,6.49
2023-03-21T15:45:20.098Z,6.44
2023-03-21T15:48:00.776Z,6.55
2023-03-21T15:50:35.468Z,6.63
2023-03-21T15:53:07.561Z,6.56
2023-03-21T15:55:48.179Z,6.64
2023-03-21T15:58:19.721Z,6.57
2023-03-21T16:00:55.252Z,6.63
2023-03-21T16:03:28.419Z,6.64
2023-03-21T16:06:04.792Z,6.51
2023-03-21T16:08:37.627Z,6.54
2023-03-21T16:11:15.579Z,6.59
2023-03-21T16:13:43.961Z,6.59
2023-03-21T16:16:18.934Z,6.52
2023-03-21T16:18:47.358Z,6.43
2023-03-21T16:21:19.444Z,6.40
2023-03-21T16:23:48.348Z,6.28
2023-03-21T16:26:18.948Z,6.29
2023-03-21T16:28:47.872Z,6.24
2023-03-21T16:31:19.173Z,6.34
2023-03-21T16:33:48.880Z,6.34
2023-03-21T16:36:19.241Z,6.41
2023-03-21T16:38:49.670Z,6.42
2023-03-21T16:41:18.989Z,6.43
2023-03-21T16:43:47.867Z,6.48
2023-03-21T16:46:19.827Z,6.49
2023-03-21T16:48:51.037Z,6.48
2023-03-21T16:51:21.666Z,6.51
2023-03-21T16:53:51.526Z,6.53
2023-03-21T16:56:23.088Z,6.52
2023-03-21T16:58:51.703Z,6.54
2023-03-21T17:01:26.121Z,6.58
2023-03-21T17:03:55.612Z,6.56
2023-03-21T17:06:26.007Z,6.55
2023-03-21T17:08:55.073Z,6.54
2023-03-21T17:11:25.092Z,6.53
2023-03-21T17:13:55.112Z,6.49
2023-03-21T17:16:27.331Z,6.39
2023-03-21T17:18:56.445Z,6.47
2023-03-21T17:21:26.868Z,6.49
2023-03-21T17:23:55.438Z,6.41
2023-03-21T17:26:26.067Z,6.42
2023-03-21T17:28:55.516Z,6.46
2023-03-21T17:31:27.098Z,6.45
2023-03-21T17:33:55.501Z,6.60
2023-03-21T17:36:28.059Z,6.47
2023-03-21T17:38:56.658Z,6.45
2023-03-21T17:41:25.922Z,6.32
2023-03-21T17:43:55.790Z,6.37
2023-03-21T17:46:27.357Z,6.43
2023-03-21T17:48:56.855Z,6.30
2023-03-21T17:51:30.182Z,6.25
2023-03-21T17:53:58.668Z,6.23
2023-03-21T17:56:30.040Z,6.29
2023-03-21T17:58:59.758Z,6.31
2023-03-21T18:01:30.925Z,6.33
2023-03-21T18:03:59.807Z,6.28
2023-03-21T18:06:28.605Z,6.26
2023-03-21T18:08:57.550Z,6.24
2023-03-21T18:11:28.090Z,6.29
2023-03-21T18:14:09.878Z,6.30
2023-03-21T18:16:44.348Z,6.28
2023-03-21T18:19:13.974Z,6.33
2023-03-21T18:21:45.250Z,6.32
2023-03-21T18:24:14.323Z,6.34
2023-03-21T18:26:42.935Z,6.28
2023-03-21T18:32:07.308Z,6.29
2023-03-21T18:34:37.344Z,6.28
2023-03-21T18:37:07.978Z,6.34
2023-03-21T18:39:37.280Z,6.35
2023-03-21T18:42:06.488Z,6.27
2023-03-21T18:44:39.306Z,6.34
2023-03-21T18:47:10.826Z,6.34
2023-03-21T18:52:28.154Z,6.26
2023-03-21T18:54:56.469Z,6.27
2023-03-21T18:57:36.356Z,6.31
2023-03-21T19:00:11.105Z,6.36
2023-03-21T19:02:45.660Z,6.37
2023-03-21T19:05:16.224Z,6.38
2023-03-21T19:07:44.651Z,6.39
2023-03-21T19:10:18.889Z,6.37
2023-03-21T19:12:48.048Z,6.35
2023-03-21T19:15:19.616Z,6.37
2023-03-21T19:20:39.028Z,6.27
2023-03-21T19:23:09.670Z,6.34
2023-03-21T19:25:39.270Z,6.32
2023-03-21T19:28:08.450Z,6.35
2023-03-21T19:30:37.586Z,6.38
2023-03-21T19:33:07.628Z,6.41
2023-03-21T19:35:40.992Z,6.39
2023-03-21T19:38:09.412Z,6.38
2023-03-21T19:40:40.685Z,6.40
2023-03-21T19:43:31.098Z,6.41
2023-03-21T19:46:00.767Z,6.41
2023-03-21T19:48:30.909Z,6.38
2023-03-21T19:51:26.722Z,6.44
2023-03-21T19:53:50.709Z,6.39
2023-03-21T19:56:23.079Z,6.42
2023-03-21T19:58:52.101Z,6.38
2023-03-21T20:01:20.710Z,6.32
2023-03-21T20:03:50.640Z,6.38
2023-03-21T20:06:19.220Z,6.33
2023-03-21T20:11:36.586Z,6.37
2023-03-21T20:14:05.517Z,6.37
2023-03-21T20:16:35.629Z,6.33
2023-03-21T20:19:08.840Z,6.36
2023-03-21T20:21:52.244Z,6.41
2023-03-21T20:24:24.944Z,6.38
2023-03-21T20:26:53.797Z,6.35
2023-03-21T20:30:07.521Z,6.30
2023-03-21T20:32:10.688Z,6.33
2023-03-21T20:34:40.425Z,6.34
2023-03-21T20:37:08.738Z,6.30
2023-03-21T20:39:37.199Z,6.31
2023-03-21T20:42:06.112Z,6.26
2023-03-21T20:45:03.052Z,6.32
2023-03-21T20:47:23.814Z,6.31
2023-03-21T20:49:55.220Z,6.34
2023-03-21T20:55:13.549Z,6.39
2023-03-21T20:57:42.322Z,6.39
2023-03-21T21:00:15.017Z,6.39
2023-03-21T21:02:45.091Z,6.42
2023-03-21T21:05:27.408Z,6.44
2023-03-21T21:07:57.343Z,6.42
2023-03-21T21:10:26.292Z,6.28
2023-03-21T21:12:54.771Z,6.13
2023-03-21T21:15:23.065Z,6.13
2023-03-21T21:18:08.700Z,6.28
2023-03-21T21:20:39.217Z,6.30
2023-03-21T21:23:09.656Z,6.22
2023-03-21T21:25:38.204Z,6.26
2023-03-21T21:28:09.575Z,6.26
2023-03-21T21:30:39.496Z,6.20
2023-03-21T21:33:08.022Z,6.31
2023-03-21T21:35:37.056Z,6.39
2023-03-21T21:38:07.126Z,6.41
2023-03-21T21:40:35.444Z,6.41
2023-03-21T21:43:03.992Z,6.42
2023-03-21T21:45:32.426Z,6.42
2023-03-21T21:48:00.890Z,6.48
2023-03-21T21:50:29.225Z,6.39
2023-03-21T21:52:58.018Z,6.49
2023-03-21T21:55:27.737Z,6.60
2023-03-21T21:57:58.206Z,6.54
2023-03-21T22:00:27.915Z,6.50
2023-03-21T22:02:56.322Z,6.49
2023-03-21T22:05:24.791Z,6.54
2023-03-21T22:07:55.191Z,6.58
2023-03-21T22:10:25.768Z,6.53
2023-03-21T22:12:55.556Z,6.44
2023-03-21T22:15:23.959Z,6.35
2023-03-21T22:17:52.410Z,6.35
2023-03-21T22:20:25.722Z,6.49
2023-03-21T22:22:56.706Z,6.58
2023-03-21T22:25:25.829Z,6.54
2023-03-21T22:27:55.607Z,6.51
2023-03-21T22:30:24.709Z,6.51
2023-03-21T22:33:08.011Z,6.47
2023-03-21T22:35:37.564Z,6.44
2023-03-21T22:38:08.998Z,6.45
2023-03-21T22:40:38.817Z,6.43
2023-03-21T22:43:09.326Z,6.43
2023-03-21T22:45:37.688Z,6.42
2023-03-21T22:48:08.521Z,6.39
2023-03-21T22:50:37.179Z,6.40
2023-03-21T22:53:05.645Z,6.43
2023-03-21T22:55:34.011Z,6.48
2023-03-21T22:58:02.542Z,6.42
2023-03-21T23:00:32.763Z,6.38
2023-03-21T23:03:01.204Z,6.33
2023-03-21T23:05:29.600Z,6.38
2023-03-21T23:07:58.091Z,6.39
2023-03-21T23:10:26.500Z,6.42
2023-03-21T23:12:54.830Z,6.41
2023-03-21T23:15:23.133Z,6.37
2023-03-21T23:17:53.003Z,6.32
2023-03-21T23:20:21.375Z,6.39
2023-03-21T23:22:49.665Z,6.47
2023-03-21T23:25:20.584Z,6.43
2023-03-21T23:27:49.497Z,6.46
2023-03-21T23:30:17.763Z,6.47
2023-03-21T23:32:46.019Z,6.40
2023-03-21T23:35:15.847Z,6.42
2023-03-21T23:37:52.655Z,6.51
2023-03-21T23:40:22.002Z,6.59
2023-03-21T23:42:50.672Z,6.51
2023-03-21T23:45:19.076Z,6.52
2023-03-21T23:47:47.520Z,6.47
2023-03-21T23:53:02.177Z,6.51
2023-03-21T23:55:30.678Z,6.53
2023-03-21T23:58:00.061Z,6.54
